Steinsel, Luxembourg
Current Conditions -  °F | °C
As of 7:20 PM on Thursday 27 Nov 2014 (Local Time) from ELLX Reporting Station
Broken Clouds Broken Clouds  
Wind Chill: 38°   Ceiling: 300
Heat Index: 43°   Visibility: 3mi
Dew Point: 41°   Wind: 8mph
Humidity: 93%   Direction: 100°E
Pressure: 29.71"   Gusts: NA
Location:  49.68°N, 6.12°E
Report Text: ELLX 271820Z 10007KT 070V140 5000 BKN003 06/05 Q1006 BECMG 3000 BR
Loading
Personal Weather Stations






























Interactive Weather Map New forecast layout! Learn more

10-Day Weather Forecast

Advertisements
Track Severe Weather on mobile